Speed, Missouri
Current Conditions -  °F | °C
As of 4:35 PM on Friday 24 Oct 2014 (Local Time) from KVER Reporting Station
Clear Clear  
Wind Chill: 77°   Ceiling: Unl
Heat Index: 79°   Visibility: 10mi
Dew Point: 59°   Wind: 7mph
Humidity: 54%   Direction: 190°S
Pressure: 29.98"   Gusts: NA
Location:  38.8814°N, 92.7602°W
Report Text: KVER 242135Z AUTO 19006KT 10SM CLR 25/15 A2998 RMK AO2 T02490149
Loading
Personal Weather Stations






























Interactive Weather Map New forecast layout! Learn more

10-Day Weather Forecast

Advertisements
Track Severe Weather on mobile